Time;durP1;ratioP1;P1;durP2;ratioP2;P2;SDS_P1;SDS_P2;PMS_P1;PMS_P2;Temp;Humidity;BMP_temperature;BMP_pressure;BME280_temperature;BME280_humidity;BME280_pressure;Samples;Min_cycle;Max_cycle;Signal;HPM_P1;HPM_P2
2022/08/19 00:02:06;;;;;;;;;;;23.40;71.90;;;;;;6156053;23;1897;-69
2022/08/19 00:04:32;;;;;;;;;;;23.40;71.90;;;;;;6155523;23;1310;-69
2022/08/19 00:06:58;;;;;;;;;;;23.40;72.00;;;;;;6155655;23;815;-69
2022/08/19 00:09:23;;;;;;;;;;;23.40;71.90;;;;;;6156857;23;754;-68
2022/08/19 00:11:49;;;;;;;;;;;23.40;71.90;;;;;;6130216;23;891;-68
2022/08/19 00:14:15;;;;;;;;;;;23.40;71.90;;;;;;6105679;23;1288;-69
2022/08/19 00:16:41;;;;;;;;;;;23.40;72.00;;;;;;6156638;23;753;-69
2022/08/19 00:19:06;;;;;;;;;;;23.40;72.00;;;;;;6130108;23;967;-69
2022/08/19 00:21:32;;;;;;;;;;;23.40;71.90;;;;;;6130141;23;765;-69
2022/08/19 00:24:00;;;;;;;;;;;23.40;72.00;;;;;;6154988;23;1932;-69
2022/08/19 00:26:26;;;;;;;;;;;23.40;72.00;;;;;;6105441;23;1461;-69
2022/08/19 00:28:52;;;;;;;;;;;23.40;72.00;;;;;;6129557;23;970;-69
2022/08/19 00:31:17;;;;;;;;;;;23.40;71.90;;;;;;6128829;23;986;-69
2022/08/19 00:33:43;;;;;;;;;;;23.40;72.00;;;;;;6154168;23;1259;-68
2022/08/19 00:36:09;;;;;;;;;;;23.40;71.90;;;;;;6129510;23;872;-68
2022/08/19 00:38:34;;;;;;;;;;;23.40;72.00;;;;;;6130115;23;904;-68
2022/08/19 00:41:00;;;;;;;;;;;23.40;72.00;;;;;;6156259;23;769;-69
2022/08/19 00:43:26;;;;;;;;;;;23.40;72.00;;;;;;6155828;23;1932;-69
2022/08/19 00:45:52;;;;;;;;;;;23.40;72.00;;;;;;6129826;23;920;-68
2022/08/19 00:48:18;;;;;;;;;;;23.40;72.00;;;;;;6129992;23;979;-70
2022/08/19 00:50:43;;;;;;;;;;;23.40;72.00;;;;;;6130504;23;805;-68
2022/08/19 00:53:09;;;;;;;;;;;23.40;72.00;;;;;;6130037;23;1279;-69
2022/08/19 00:55:34;;;;;;;;;;;23.40;72.00;;;;;;6155860;23;801;-68
2022/08/19 00:58:07;;;;;;;;;;;23.40;72.00;;;;;;6156279;23;869;-68
2022/08/19 01:00:36;;;;;;;;;;;23.40;72.00;;;;;;6130110;23;861;-68
2022/08/19 01:03:02;;;;;;;;;;;23.40;72.00;;;;;;6155855;23;1942;-68
2022/08/19 01:05:28;;;;;;;;;;;23.40;72.00;;;;;;6129583;23;810;-68
2022/08/19 01:07:54;;;;;;;;;;;23.40;72.00;;;;;;6156101;23;860;-68
2022/08/19 01:10:21;;;;;;;;;;;23.40;72.00;;;;;;6129996;23;801;-68
2022/08/19 01:12:46;;;;;;;;;;;23.40;72.00;;;;;;6129812;23;1216;-68
2022/08/19 01:15:13;;;;;;;;;;;23.40;72.00;;;;;;6129929;23;800;-68
2022/08/19 01:17:38;;;;;;;;;;;23.40;72.10;;;;;;6105153;23;1349;-68
2022/08/19 01:20:04;;;;;;;;;;;23.40;72.10;;;;;;6129856;23;923;-68
2022/08/19 01:22:30;;;;;;;;;;;23.40;72.10;;;;;;6129826;23;1917;-69
2022/08/19 01:24:55;;;;;;;;;;;23.40;72.10;;;;;;6129682;23;1255;-69
2022/08/19 01:27:21;;;;;;;;;;;23.40;72.10;;;;;;6104711;23;1533;-69
2022/08/19 01:29:47;;;;;;;;;;;23.40;72.10;;;;;;6156010;23;785;-69
2022/08/19 01:32:14;;;;;;;;;;;23.40;72.10;;;;;;6105709;23;1260;-70
2022/08/19 01:34:39;;;;;;;;;;;23.40;72.10;;;;;;6104930;23;1297;-70
2022/08/19 01:37:07;;;;;;;;;;;23.40;72.10;;;;;;6129757;23;781;-69
2022/08/19 01:39:33;;;;;;;;;;;23.40;72.20;;;;;;6156239;23;800;-70
2022/08/19 01:42:02;;;;;;;;;;;23.40;72.10;;;;;;6155014;23;871;-69
2022/08/19 01:44:28;;;;;;;;;;;23.40;72.20;;;;;;6155648;23;1218;-69
2022/08/19 01:46:53;;;;;;;;;;;23.40;72.10;;;;;;6155802;23;830;-69
2022/08/19 01:49:19;;;;;;;;;;;23.40;72.20;;;;;;6155910;23;733;-68
2022/08/19 01:51:45;;;;;;;;;;;23.40;72.10;;;;;;6129971;23;1377;-69
2022/08/19 01:54:11;;;;;;;;;;;23.40;72.20;;;;;;6128965;23;1263;-69
2022/08/19 01:56:38;;;;;;;;;;;23.40;72.20;;;;;;6129250;23;900;-69
2022/08/19 01:59:04;;;;;;;;;;;23.40;72.20;;;;;;6129737;23;829;-69
2022/08/19 02:01:34;;;;;;;;;;;23.40;72.10;;;;;;6129836;23;769;-68
2022/08/19 02:04:00;;;;;;;;;;;23.40;72.20;;;;;;6130426;23;1905;-69
2022/08/19 02:06:26;;;;;;;;;;;23.40;72.10;;;;;;6155387;23;808;-69
2022/08/19 02:08:51;;;;;;;;;;;23.40;72.10;;;;;;6155727;23;883;-68
2022/08/19 02:11:20;;;;;;;;;;;23.40;72.20;;;;;;6155749;23;876;-69
2022/08/19 02:13:46;;;;;;;;;;;23.40;72.10;;;;;;6155486;23;1243;-69
2022/08/19 02:16:11;;;;;;;;;;;23.40;72.10;;;;;;6155160;23;809;-69
2022/08/19 02:18:37;;;;;;;;;;;23.40;72.20;;;;;;6104687;23;1208;-69
2022/08/19 02:21:02;;;;;;;;;;;23.40;72.10;;;;;;6155460;23;1088;-69
2022/08/19 02:23:28;;;;;;;;;;;23.40;72.10;;;;;;6155215;23;1934;-69
2022/08/19 02:25:53;;;;;;;;;;;23.40;72.10;;;;;;6155206;23;872;-69
2022/08/19 02:28:19;;;;;;;;;;;23.40;72.10;;;;;;6129626;23;1011;-69
2022/08/19 02:30:44;;;;;;;;;;;23.40;72.10;;;;;;6129559;23;1063;-69
2022/08/19 02:33:09;;;;;;;;;;;23.40;72.10;;;;;;6155427;23;1211;-69
2022/08/19 02:35:35;;;;;;;;;;;23.40;72.20;;;;;;6104759;23;1133;-68
2022/08/19 02:40:49;;;;;;;;;;;23.40;72.20;;;;;;6155536;23;603;-70
2022/08/19 02:43:15;;;;;;;;;;;23.40;72.20;;;;;;6129658;23;1889;-69
2022/08/19 02:45:40;;;;;;;;;;;23.40;72.20;;;;;;6129247;23;817;-68
2022/08/19 02:48:06;;;;;;;;;;;23.40;72.20;;;;;;6129530;23;804;-68
2022/08/19 02:50:31;;;;;;;;;;;23.40;72.20;;;;;;6129712;23;829;-70
2022/08/19 02:52:57;;;;;;;;;;;23.40;72.20;;;;;;6129165;23;1204;-70
2022/08/19 02:55:22;;;;;;;;;;;23.40;72.20;;;;;;6155156;23;797;-69
2022/08/19 02:57:48;;;;;;;;;;;23.40;72.20;;;;;;6155434;23;955;-70
2022/08/19 03:00:14;;;;;;;;;;;23.40;72.20;;;;;;6129404;23;931;-70
2022/08/19 03:02:39;;;;;;;;;;;23.40;72.20;;;;;;6129346;23;1936;-69
2022/08/19 03:05:05;;;;;;;;;;;23.40;72.30;;;;;;6129213;23;1197;-69
2022/08/19 03:07:30;;;;;;;;;;;23.40;72.30;;;;;;6104558;23;1081;-69
2022/08/19 03:09:56;;;;;;;;;;;23.40;72.20;;;;;;6155143;23;906;-69
2022/08/19 03:12:21;;;;;;;;;;;23.40;72.20;;;;;;6155164;23;983;-69
2022/08/19 03:14:47;;;;;;;;;;;23.40;72.20;;;;;;6128964;23;1197;-69
2022/08/19 03:17:12;;;;;;;;;;;23.40;72.30;;;;;;6155112;23;781;-69
2022/08/19 03:19:38;;;;;;;;;;;23.40;72.30;;;;;;6155236;23;801;-69
2022/08/19 03:22:04;;;;;;;;;;;23.40;72.30;;;;;;6155145;23;1919;-69
2022/08/19 03:24:30;;;;;;;;;;;23.40;72.30;;;;;;6154990;23;1208;-69
2022/08/19 03:26:57;;;;;;;;;;;23.40;72.30;;;;;;6128911;23;789;-69
2022/08/19 03:29:23;;;;;;;;;;;23.40;72.30;;;;;;6130005;23;785;-69
2022/08/19 03:31:50;;;;;;;;;;;23.40;72.30;;;;;;6131095;23;812;-71
2022/08/19 03:34:17;;;;;;;;;;;23.40;72.30;;;;;;6131533;23;1204;-71
2022/08/19 03:36:42;;;;;;;;;;;23.40;72.30;;;;;;6131312;23;855;-70
2022/08/19 03:39:08;;;;;;;;;;;23.40;72.30;;;;;;6157384;23;777;-69
2022/08/19 03:41:36;;;;;;;;;;;23.40;72.30;;;;;;6131599;23;1449;-68
2022/08/19 03:44:01;;;;;;;;;;;23.40;72.30;;;;;;6131077;23;1885;-68
2022/08/19 03:46:28;;;;;;;;;;;23.40;72.30;;;;;;6131629;23;1010;-70
2022/08/19 03:48:54;;;;;;;;;;;23.40;72.30;;;;;;6131429;23;808;-69
2022/08/19 03:51:21;;;;;;;;;;;23.40;72.30;;;;;;6131451;23;963;-70
2022/08/19 03:53:46;;;;;;;;;;;23.40;72.40;;;;;;6153638;23;3319;-64
2022/08/19 03:56:12;;;;;;;;;;;23.40;72.30;;;;;;6100612;23;952;-66
2022/08/19 03:58:38;;;;;;;;;;;23.40;72.30;;;;;;6101800;23;796;-67
2022/08/19 04:01:06;;;;;;;;;;;23.40;72.30;;;;;;6101731;23;1207;-66
2022/08/19 04:03:32;;;;;;;;;;;23.40;72.30;;;;;;6127153;23;1935;-64
2022/08/19 04:05:57;;;;;;;;;;;23.40;72.40;;;;;;6126971;23;879;-65
2022/08/19 04:08:23;;;;;;;;;;;23.40;72.30;;;;;;6127519;23;908;-64
2022/08/19 04:10:48;;;;;;;;;;;23.40;72.40;;;;;;6127362;23;1034;-65
2022/08/19 04:13:16;;;;;;;;;;;23.40;72.40;;;;;;6127469;23;792;-64
2022/08/19 04:15:42;;;;;;;;;;;23.40;72.40;;;;;;6101147;23;1197;-64
2022/08/19 04:18:08;;;;;;;;;;;23.40;72.30;;;;;;6127389;23;848;-62
2022/08/19 04:20:41;;;;;;;;;;;23.40;72.40;;;;;;6101774;23;855;-65
2022/08/19 04:23:06;;;;;;;;;;;23.40;72.40;;;;;;6127131;23;1897;-67
2022/08/19 04:25:36;;;;;;;;;;;23.40;72.40;;;;;;6126544;23;1239;-62
2022/08/19 04:28:01;;;;;;;;;;;23.40;72.40;;;;;;6127448;23;766;-64
2022/08/19 04:30:27;;;;;;;;;;;23.40;72.40;;;;;;6127389;23;835;-65
2022/08/19 04:32:52;;;;;;;;;;;23.40;72.40;;;;;;6127334;23;853;-65
2022/08/19 04:35:18;;;;;;;;;;;23.40;72.40;;;;;;6126092;23;1173;-65
2022/08/19 04:37:43;;;;;;;;;;;23.40;72.40;;;;;;6127088;23;837;-65
2022/08/19 04:42:53;;;;;;;;;;;23.40;72.50;;;;;;6126847;23;1881;-64
2022/08/19 04:45:19;;;;;;;;;;;23.40;72.40;;;;;;6126616;23;1258;-64
2022/08/19 04:47:44;;;;;;;;;;;23.40;72.40;;;;;;6126640;23;928;-64
2022/08/19 04:50:11;;;;;;;;;;;23.40;72.40;;;;;;6126755;23;1002;-65
2022/08/19 04:52:37;;;;;;;;;;;23.40;72.40;;;;;;6126553;23;933;-64
2022/08/19 04:55:06;;;;;;;;;;;23.40;72.40;;;;;;6126486;23;1254;-64
2022/08/19 04:57:31;;;;;;;;;;;23.40;72.40;;;;;;6126626;23;816;-64
2022/08/19 04:59:57;;;;;;;;;;;23.40;72.40;;;;;;6126741;23;825;-64
2022/08/19 05:02:25;;;;;;;;;;;23.40;72.40;;;;;;6126725;23;1901;-64
2022/08/19 05:04:55;;;;;;;;;;;23.40;72.40;;;;;;6126649;23;1263;-63
2022/08/19 05:07:21;;;;;;;;;;;23.40;72.40;;;;;;6126382;23;784;-64
2022/08/19 05:09:46;;;;;;;;;;;23.40;72.40;;;;;;6126655;23;801;-65
2022/08/19 05:12:12;;;;;;;;;;;23.40;72.40;;;;;;6126726;23;832;-65
2022/08/19 05:14:37;;;;;;;;;;;23.40;72.40;;;;;;6126242;23;1203;-64
2022/08/19 05:17:02;;;;;;;;;;;23.40;72.40;;;;;;6126320;23;967;-66
2022/08/19 05:22:46;;;;;;;;;;;23.40;72.40;;;;;;6126553;23;1934;-64
2022/08/19 05:25:06;;;;;;;;;;;23.40;72.40;;;;;;6123170;23;1712;-62
2022/08/19 05:27:32;;;;;;;;;;;23.40;72.40;;;;;;6126190;23;813;-64
2022/08/19 05:29:57;;;;;;;;;;;23.40;72.40;;;;;;6126679;23;866;-66
2022/08/19 05:32:23;;;;;;;;;;;23.40;73.20;;;;;;6126562;23;853;-64
2022/08/19 05:34:48;;;;;;;;;;;23.40;72.40;;;;;;6126191;23;1258;-66
2022/08/19 05:37:14;;;;;;;;;;;23.40;72.40;;;;;;6126378;23;931;-65
2022/08/19 05:39:40;;;;;;;;;;;23.40;72.40;;;;;;6126247;23;998;-67
2022/08/19 05:42:06;;;;;;;;;;;23.40;72.40;;;;;;6100050;23;813;-66
2022/08/19 05:44:33;;;;;;;;;;;23.40;72.40;;;;;;6100156;23;1282;-65
2022/08/19 05:46:59;;;;;;;;;;;23.40;72.40;;;;;;6125959;23;832;-65
2022/08/19 05:49:25;;;;;;;;;;;23.40;72.50;;;;;;6100438;23;856;-65
2022/08/19 05:51:50;;;;;;;;;;;23.40;72.60;;;;;;6126382;23;835;-65
2022/08/19 05:54:17;;;;;;;;;;;23.40;72.50;;;;;;6125848;23;1263;-66
2022/08/19 05:56:42;;;;;;;;;;;23.40;72.50;;;;;;6100179;23;825;-65
2022/08/19 05:59:11;;;;;;;;;;;23.40;72.50;;;;;;6125998;23;1030;-66
2022/08/19 06:01:37;;;;;;;;;;;23.40;72.50;;;;;;6101092;23;936;-67
2022/08/19 06:04:03;;;;;;;;;;;23.40;72.50;;;;;;6125750;23;1944;-66
2022/08/19 06:06:28;;;;;;;;;;;23.40;72.60;;;;;;6100057;23;992;-66
2022/08/19 06:08:54;;;;;;;;;;;23.40;72.50;;;;;;6126040;23;900;-65
2022/08/19 06:11:20;;;;;;;;;;;23.40;72.50;;;;;;6126169;23;1022;-65
2022/08/19 06:13:47;;;;;;;;;;;23.40;72.50;;;;;;6125631;23;1254;-65
2022/08/19 06:16:14;;;;;;;;;;;23.40;72.50;;;;;;6125799;23;791;-63
2022/08/19 06:18:39;;;;;;;;;;;23.40;72.50;;;;;;6126401;23;815;-66
2022/08/19 06:21:05;;;;;;;;;;;23.30;72.50;;;;;;6125996;23;785;-65
2022/08/19 06:23:30;;;;;;;;;;;23.40;72.50;;;;;;6125865;23;1892;-65
2022/08/19 06:25:56;;;;;;;;;;;23.40;72.50;;;;;;6125667;23;966;-65
2022/08/19 06:28:23;;;;;;;;;;;23.40;72.50;;;;;;6126005;23;765;-67
2022/08/19 06:30:49;;;;;;;;;;;23.40;72.50;;;;;;6100696;23;888;-66
2022/08/19 06:33:14;;;;;;;;;;;23.40;72.50;;;;;;6126415;23;1041;-66
2022/08/19 06:35:40;;;;;;;;;;;23.40;72.50;;;;;;6125346;23;1236;-64
2022/08/19 06:38:05;;;;;;;;;;;23.40;72.50;;;;;;6126044;23;780;-65
2022/08/19 06:40:31;;;;;;;;;;;23.40;72.50;;;;;;6126037;23;873;-65
2022/08/19 06:42:58;;;;;;;;;;;23.40;72.50;;;;;;6125756;23;1866;-66
2022/08/19 06:45:23;;;;;;;;;;;23.40;72.50;;;;;;6125567;23;1229;-63
2022/08/19 06:47:49;;;;;;;;;;;23.40;72.50;;;;;;6125835;23;883;-65
2022/08/19 06:50:14;;;;;;;;;;;23.30;72.50;;;;;;6099871;23;845;-66
2022/08/19 06:52:40;;;;;;;;;;;23.40;72.50;;;;;;6125931;23;788;-66
2022/08/19 06:55:06;;;;;;;;;;;23.30;72.50;;;;;;6075592;23;1193;-66
2022/08/19 06:57:32;;;;;;;;;;;23.30;72.50;;;;;;6099670;23;785;-65
2022/08/19 06:59:59;;;;;;;;;;;23.40;72.50;;;;;;6125760;23;848;-65
2022/08/19 07:02:26;;;;;;;;;;;23.40;72.50;;;;;;6100223;23;1893;-65
2022/08/19 07:04:52;;;;;;;;;;;23.40;72.60;;;;;;6126675;23;1278;-64
2022/08/19 07:07:17;;;;;;;;;;;23.40;72.50;;;;;;6127513;23;844;-64
2022/08/19 07:09:43;;;;;;;;;;;23.30;72.50;;;;;;6101892;23;825;-64
2022/08/19 07:12:09;;;;;;;;;;;23.30;72.50;;;;;;6127575;23;891;-65
2022/08/19 07:14:37;;;;;;;;;;;23.40;72.50;;;;;;6127536;23;1194;-64
2022/08/19 07:17:04;;;;;;;;;;;23.40;72.60;;;;;;6102131;23;907;-65
2022/08/19 07:19:29;;;;;;;;;;;23.30;72.50;;;;;;6127635;23;931;-64
2022/08/19 07:21:55;;;;;;;;;;;23.30;72.50;;;;;;6101834;23;836;-65
2022/08/19 07:24:23;;;;;;;;;;;23.30;73.20;;;;;;6127479;23;1939;-65
2022/08/19 07:26:50;;;;;;;;;;;23.30;72.50;;;;;;6127151;23;805;-64
2022/08/19 07:29:16;;;;;;;;;;;23.40;72.50;;;;;;6127608;23;868;-65
2022/08/19 07:31:41;;;;;;;;;;;23.40;72.50;;;;;;6127672;23;800;-65
2022/08/19 07:34:08;;;;;;;;;;;23.40;72.50;;;;;;6127150;23;1203;-65
2022/08/19 07:36:34;;;;;;;;;;;23.40;73.30;;;;;;6127172;23;836;-64
2022/08/19 07:39:00;;;;;;;;;;;23.40;72.50;;;;;;6127499;23;833;-65
2022/08/19 07:41:28;;;;;;;;;;;23.30;72.50;;;;;;6127555;23;835;-65
2022/08/19 07:43:53;;;;;;;;;;;23.40;72.50;;;;;;6101196;23;1905;-65
2022/08/19 07:46:20;;;;;;;;;;;23.30;72.50;;;;;;6127551;23;854;-65
2022/08/19 07:48:46;;;;;;;;;;;23.30;72.50;;;;;;6127463;23;926;-65
2022/08/19 07:51:12;;;;;;;;;;;23.40;72.50;;;;;;6101707;23;789;-65
2022/08/19 07:53:37;;;;;;;;;;;23.40;72.50;;;;;;6127149;23;1271;-66
2022/08/19 07:56:03;;;;;;;;;;;23.40;72.50;;;;;;6126768;23;902;-65
2022/08/19 07:58:30;;;;;;;;;;;23.30;72.40;;;;;;6101814;23;860;-64
2022/08/19 08:00:55;;;;;;;;;;;23.40;72.50;;;;;;6127671;23;817;-64
2022/08/19 08:09:10;;;;;;;;;;;23.40;72.50;;;;;;6127140;23;1932;-64
2022/08/19 08:11:35;;;;;;;;;;;23.40;72.50;;;;;;6127256;23;1603;-64
2022/08/19 08:14:00;;;;;;;;;;;23.40;72.60;;;;;;6127394;23;1299;-64
2022/08/19 08:16:29;;;;;;;;;;;23.40;72.50;;;;;;6100351;23;1505;-64
2022/08/19 08:18:55;;;;;;;;;;;23.40;72.50;;;;;;6127361;23;950;-64
2022/08/19 08:21:20;;;;;;;;;;;23.40;72.60;;;;;;6127350;23;830;-64
2022/08/19 08:23:46;;;;;;;;;;;23.30;72.60;;;;;;6126850;23;1925;-66
2022/08/19 08:26:14;;;;;;;;;;;23.30;72.60;;;;;;6126655;23;880;-64
2022/08/19 08:28:39;;;;;;;;;;;23.30;72.60;;;;;;6101782;23;817;-64
2022/08/19 08:31:04;;;;;;;;;;;23.40;72.60;;;;;;6126748;23;1191;-64
2022/08/19 08:33:30;;;;;;;;;;;23.40;72.60;;;;;;6126768;23;1312;-64
2022/08/19 08:35:56;;;;;;;;;;;23.30;72.60;;;;;;6100707;23;708;-64
2022/08/19 08:38:21;;;;;;;;;;;23.30;72.50;;;;;;6127036;23;927;-64
2022/08/19 08:40:51;;;;;;;;;;;23.30;72.50;;;;;;6126727;23;860;-64
2022/08/19 08:43:32;;;;;;;;;;;23.40;72.60;;;;;;6101078;23;1897;-64
2022/08/19 08:46:04;;;;;;;;;;;23.30;72.50;;;;;;6100525;23;1074;-64
2022/08/19 08:48:33;;;;;;;;;;;23.30;72.50;;;;;;6100970;23;738;-64
2022/08/19 08:50:58;;;;;;;;;;;23.40;72.50;;;;;;6126913;23;864;-64
2022/08/19 08:53:23;;;;;;;;;;;23.40;72.50;;;;;;6100815;23;814;-66
2022/08/19 08:55:49;;;;;;;;;;;23.40;72.50;;;;;;6126050;23;1229;-66
2022/08/19 08:58:17;;;;;;;;;;;23.40;72.50;;;;;;6126589;23;832;-65
2022/08/19 09:00:45;;;;;;;;;;;23.30;72.50;;;;;;6100799;23;699;-65
2022/08/19 09:03:16;;;;;;;;;;;23.40;72.50;;;;;;6100850;23;1940;-65
2022/08/19 09:05:48;;;;;;;;;;;23.40;72.50;;;;;;6100272;23;1293;-64
2022/08/19 09:08:16;;;;;;;;;;;23.40;72.50;;;;;;6126651;23;841;-64
2022/08/19 09:10:51;;;;;;;;;;;23.30;72.40;;;;;;6126439;23;919;-65
2022/08/19 09:13:23;;;;;;;;;;;23.30;72.40;;;;;;6100672;23;999;-66
2022/08/19 09:16:00;;;;;;;;;;;23.40;72.50;;;;;;6126280;23;1277;-65
2022/08/19 09:18:26;;;;;;;;;;;23.40;72.50;;;;;;6126662;23;837;-66
2022/08/19 09:20:52;;;;;;;;;;;23.40;72.50;;;;;;6100547;23;1207;-65
2022/08/19 09:23:17;;;;;;;;;;;23.40;72.50;;;;;;6100265;23;1893;-65
2022/08/19 09:25:42;;;;;;;;;;;23.30;72.50;;;;;;6125984;23;1162;-65
2022/08/19 09:28:08;;;;;;;;;;;23.40;72.50;;;;;;6126214;23;888;-64
2022/08/19 09:30:37;;;;;;;;;;;23.40;72.50;;;;;;6126316;23;1263;-65
2022/08/19 09:33:03;;;;;;;;;;;23.40;72.50;;;;;;6101068;23;842;-65
2022/08/19 09:35:28;;;;;;;;;;;23.40;72.50;;;;;;6126099;23;1167;-65
2022/08/19 09:37:54;;;;;;;;;;;23.40;72.60;;;;;;6126009;23;974;-65
2022/08/19 09:40:20;;;;;;;;;;;23.30;72.50;;;;;;6126470;23;852;-66
2022/08/19 09:42:47;;;;;;;;;;;23.40;72.70;;;;;;6126451;23;1866;-66
2022/08/19 09:45:13;;;;;;;;;;;23.40;72.60;;;;;;6100437;23;1202;-65
2022/08/19 09:47:38;;;;;;;;;;;23.40;72.60;;;;;;6100115;23;1088;-66
2022/08/19 09:50:05;;;;;;;;;;;23.40;72.60;;;;;;6126506;23;730;-67
2022/08/19 09:52:30;;;;;;;;;;;23.40;72.50;;;;;;6100084;23;828;-65
2022/08/19 09:54:56;;;;;;;;;;;23.40;72.60;;;;;;6098797;23;1935;-76
2022/08/19 09:57:21;;;;;;;;;;;23.40;72.50;;;;;;6069408;23;1288;-76
2022/08/19 09:59:47;;;;;;;;;;;23.30;72.50;;;;;;6093893;23;1009;-76
2022/08/19 10:02:13;;;;;;;;;;;23.40;72.50;;;;;;6093248;23;790;-75
2022/08/19 10:07:22;;;;;;;;;;;23.40;72.50;;;;;;6094055;23;1271;-75
2022/08/19 10:09:48;;;;;;;;;;;23.40;72.50;;;;;;6068777;23;1226;-75
2022/08/19 10:12:15;;;;;;;;;;;23.40;72.50;;;;;;6094723;23;803;-76
2022/08/19 10:14:40;;;;;;;;;;;23.40;72.50;;;;;;6092343;23;882;-75
2022/08/19 10:17:06;;;;;;;;;;;23.40;72.50;;;;;;6067154;23;1338;-75
2022/08/19 10:19:35;;;;;;;;;;;23.40;72.50;;;;;;6069508;23;1294;-76
2022/08/19 10:22:04;;;;;;;;;;;23.30;72.50;;;;;;6067558;23;1341;-75
2022/08/19 10:24:30;;;;;;;;;;;23.40;72.50;;;;;;6091718;23;1946;-75
2022/08/19 10:26:56;;;;;;;;;;;23.40;72.50;;;;;;6069042;23;1264;-76
2022/08/19 10:29:21;;;;;;;;;;;23.40;72.50;;;;;;6093810;23;898;-76
2022/08/19 10:31:47;;;;;;;;;;;23.40;72.50;;;;;;6093724;23;933;-76
2022/08/19 10:34:12;;;;;;;;;;;23.40;72.50;;;;;;6093633;23;807;-76
2022/08/19 10:36:38;;;;;;;;;;;23.40;72.50;;;;;;6069021;23;1216;-76
2022/08/19 10:39:05;;;;;;;;;;;23.40;72.50;;;;;;6088026;23;736;-75
2022/08/19 10:41:31;;;;;;;;;;;23.40;72.50;;;;;;6095784;23;812;-76
2022/08/19 10:43:58;;;;;;;;;;;23.40;72.50;;;;;;6097024;23;1936;-76
2022/08/19 10:46:23;;;;;;;;;;;23.40;72.60;;;;;;6071167;23;1197;-76
2022/08/19 10:48:49;;;;;;;;;;;23.40;72.50;;;;;;6071624;23;1276;-76
2022/08/19 10:53:59;;;;;;;;;;;23.40;72.50;;;;;;6095916;23;913;-76
2022/08/19 10:59:09;;;;;;;;;;;23.40;72.60;;;;;;6095936;23;598;-76
2022/08/19 11:01:35;;;;;;;;;;;23.40;72.60;;;;;;6095933;23;794;-76
2022/08/19 11:04:01;;;;;;;;;;;23.40;72.60;;;;;;6095554;23;1901;-76
2022/08/19 11:06:26;;;;;;;;;;;23.40;72.60;;;;;;6094683;23;1224;-76
2022/08/19 11:08:52;;;;;;;;;;;23.30;72.50;;;;;;6071361;23;1165;-76
2022/08/19 11:11:18;;;;;;;;;;;23.40;72.50;;;;;;6071680;23;1248;-76
2022/08/19 11:13:46;;;;;;;;;;;23.40;72.60;;;;;;6094853;23;922;-76
2022/08/19 11:16:13;;;;;;;;;;;23.40;72.50;;;;;;6070461;23;1211;-76
2022/08/19 11:18:40;;;;;;;;;;;23.40;72.60;;;;;;6095411;23;858;-76
2022/08/19 11:21:09;;;;;;;;;;;23.40;72.50;;;;;;6097201;23;818;-76
2022/08/19 11:23:34;;;;;;;;;;;23.40;72.60;;;;;;6070638;23;1938;-76
2022/08/19 11:26:00;;;;;;;;;;;23.40;72.50;;;;;;6070832;23;1282;-77
2022/08/19 11:28:26;;;;;;;;;;;23.40;72.50;;;;;;6070909;23;1349;-76
2022/08/19 11:30:51;;;;;;;;;;;23.40;72.50;;;;;;6097376;23;783;-76
2022/08/19 11:33:17;;;;;;;;;;;23.40;72.50;;;;;;6095230;23;894;-75
2022/08/19 11:35:43;;;;;;;;;;;23.40;72.50;;;;;;6070730;23;1200;-76
2022/08/19 11:38:08;;;;;;;;;;;23.40;72.60;;;;;;6071196;23;1067;-77
2022/08/19 11:40:34;;;;;;;;;;;23.40;72.60;;;;;;6097371;23;1013;-76
2022/08/19 11:42:59;;;;;;;;;;;23.40;72.60;;;;;;6096587;23;1885;-76
2022/08/19 11:45:25;;;;;;;;;;;23.40;72.70;;;;;;6096415;23;1301;-76
2022/08/19 11:47:51;;;;;;;;;;;23.40;72.70;;;;;;6096623;23;835;-76
2022/08/19 11:50:17;;;;;;;;;;;23.40;72.60;;;;;;6094808;23;937;-76
2022/08/19 11:52:43;;;;;;;;;;;23.40;72.60;;;;;;6095498;23;845;-77
2022/08/19 11:55:09;;;;;;;;;;;23.40;72.70;;;;;;6095285;23;898;-75
2022/08/19 11:57:34;;;;;;;;;;;23.40;72.60;;;;;;6094213;23;1282;-77
2022/08/19 12:00:01;;;;;;;;;;;23.40;72.60;;;;;;6070659;23;1190;-76
2022/08/19 12:02:26;;;;;;;;;;;23.40;72.60;;;;;;6070997;23;1938;-76
2022/08/19 12:04:52;;;;;;;;;;;23.40;72.80;;;;;;6096207;23;863;-76
2022/08/19 12:07:17;;;;;;;;;;;23.40;72.80;;;;;;6094658;23;1197;-76
2022/08/19 12:09:43;;;;;;;;;;;23.40;72.70;;;;;;6070702;23;1311;-76
2022/08/19 12:12:09;;;;;;;;;;;23.40;72.70;;;;;;6095542;23;895;-76
2022/08/19 12:14:35;;;;;;;;;;;23.40;73.20;;;;;;6070636;23;1125;-76
2022/08/19 12:17:01;;;;;;;;;;;23.40;72.70;;;;;;6094490;23;1215;-76
2022/08/19 12:19:28;;;;;;;;;;;23.40;72.70;;;;;;6070843;23;1197;-76
2022/08/19 12:21:56;;;;;;;;;;;23.40;72.60;;;;;;6070807;23;1422;-76
2022/08/19 12:24:24;;;;;;;;;;;23.40;72.70;;;;;;6070155;23;1933;-76
2022/08/19 12:26:49;;;;;;;;;;;23.40;72.60;;;;;;6069904;23;1193;-76
2022/08/19 12:29:14;;;;;;;;;;;23.40;72.60;;;;;;6070697;23;1271;-76
2022/08/19 12:31:40;;;;;;;;;;;23.40;72.70;;;;;;6070638;23;1119;-75
2022/08/19 12:34:05;;;;;;;;;;;23.40;72.60;;;;;;6094726;23;779;-76
2022/08/19 12:36:31;;;;;;;;;;;23.40;72.60;;;;;;6094071;23;1272;-78
2022/08/19 12:38:58;;;;;;;;;;;23.40;72.70;;;;;;6070839;23;1303;-76
2022/08/19 12:41:23;;;;;;;;;;;23.40;72.60;;;;;;6095708;23;783;-75
2022/08/19 12:43:49;;;;;;;;;;;23.40;72.60;;;;;;6095983;23;1885;-75
2022/08/19 12:46:15;;;;;;;;;;;23.40;72.60;;;;;;6070517;23;1381;-75
2022/08/19 12:48:44;;;;;;;;;;;23.40;72.70;;;;;;6071336;23;1287;-75
2022/08/19 12:51:11;;;;;;;;;;;23.40;72.60;;;;;;6096236;23;882;-75
2022/08/19 12:53:37;;;;;;;;;;;23.40;72.60;;;;;;6070974;23;1343;-74
2022/08/19 12:56:02;;;;;;;;;;;23.40;72.60;;;;;;6069302;23;1216;-74
2022/08/19 12:58:28;;;;;;;;;;;23.40;72.60;;;;;;6070915;23;1149;-75
2022/08/19 13:00:54;;;;;;;;;;;23.40;72.60;;;;;;6094773;23;849;-75
2022/08/19 13:03:19;;;;;;;;;;;23.40;72.60;;;;;;6069931;23;1893;-75
2022/08/19 13:05:45;;;;;;;;;;;23.40;72.60;;;;;;6093952;23;1151;-75
2022/08/19 13:08:11;;;;;;;;;;;23.40;72.70;;;;;;6094960;23;1021;-75
2022/08/19 13:10:36;;;;;;;;;;;23.40;72.70;;;;;;6070879;23;1335;-75
2022/08/19 13:13:03;;;;;;;;;;;23.40;72.60;;;;;;6069634;23;1162;-75
2022/08/19 13:15:30;;;;;;;;;;;23.40;72.60;;;;;;6093631;23;1310;-75
2022/08/19 13:17:56;;;;;;;;;;;23.40;72.60;;;;;;6096304;23;787;-75
2022/08/19 13:20:22;;;;;;;;;;;23.40;72.60;;;;;;6094031;23;1522;-75
2022/08/19 13:22:48;;;;;;;;;;;23.40;72.60;;;;;;6093758;23;1885;-75
2022/08/19 13:25:13;;;;;;;;;;;23.40;72.60;;;;;;6093404;23;1194;-75
2022/08/19 13:27:39;;;;;;;;;;;23.40;72.60;;;;;;6094900;23;835;-75
2022/08/19 13:35:34;;;;;;;;;;;23.40;72.60;;;;;;6094815;23;1223;-75
2022/08/19 13:38:00;;;;;;;;;;;23.40;72.60;;;;;;6069874;23;1204;-75
2022/08/19 13:40:26;;;;;;;;;;;23.40;72.60;;;;;;6094919;23;853;-75
2022/08/19 13:42:52;;;;;;;;;;;23.40;72.70;;;;;;6094313;23;1919;-74
2022/08/19 13:45:19;;;;;;;;;;;23.40;72.60;;;;;;6094016;23;1266;-74
2022/08/19 13:47:45;;;;;;;;;;;23.40;72.60;;;;;;6091982;23;767;-75
2022/08/19 13:50:11;;;;;;;;;;;23.40;72.70;;;;;;6093751;23;1005;-75
2022/08/19 13:52:38;;;;;;;;;;;23.30;73.30;;;;;;6094134;23;807;-75
2022/08/19 13:55:04;;;;;;;;;;;23.40;72.70;;;;;;6093510;23;834;-74
2022/08/19 13:57:30;;;;;;;;;;;23.40;72.60;;;;;;6095349;23;1250;-74
2022/08/19 13:59:55;;;;;;;;;;;23.40;72.70;;;;;;6095383;23;869;-74
2022/08/19 14:02:20;;;;;;;;;;;23.40;72.70;;;;;;6095458;23;934;-74
2022/08/19 14:04:46;;;;;;;;;;;23.40;72.80;;;;;;6095156;23;1893;-74
2022/08/19 14:07:11;;;;;;;;;;;23.40;72.70;;;;;;6069262;23;1206;-74
2022/08/19 14:09:37;;;;;;;;;;;23.40;72.80;;;;;;6095557;23;1009;-74
2022/08/19 14:12:03;;;;;;;;;;;23.40;72.70;;;;;;6095378;23;997;-74
2022/08/19 14:14:28;;;;;;;;;;;23.40;72.70;;;;;;6094092;23;834;-74
2022/08/19 14:16:54;;;;;;;;;;;23.40;72.80;;;;;;6094798;23;1268;-74
2022/08/19 14:19:19;;;;;;;;;;;23.40;72.70;;;;;;6069597;23;1143;-74
2022/08/19 14:21:45;;;;;;;;;;;23.40;72.70;;;;;;6095462;23;1036;-75
2022/08/19 14:24:10;;;;;;;;;;;23.40;72.70;;;;;;6069665;23;1897;-75
2022/08/19 14:26:36;;;;;;;;;;;23.40;72.70;;;;;;6087965;23;1207;-74
2022/08/19 14:29:01;;;;;;;;;;;23.40;72.70;;;;;;6093772;23;788;-74
2022/08/19 14:31:29;;;;;;;;;;;23.40;72.70;;;;;;6095445;23;799;-74
2022/08/19 14:33:54;;;;;;;;;;;23.40;72.70;;;;;;6093911;23;812;-75
2022/08/19 14:36:20;;;;;;;;;;;23.40;72.70;;;;;;6093640;23;1191;-74
2022/08/19 14:38:46;;;;;;;;;;;23.40;72.70;;;;;;6094962;23;834;-74
2022/08/19 14:41:11;;;;;;;;;;;23.40;72.70;;;;;;6096240;23;938;-73
2022/08/19 14:43:38;;;;;;;;;;;23.40;72.70;;;;;;6095879;23;1889;-74
2022/08/19 14:46:03;;;;;;;;;;;23.40;72.70;;;;;;6092553;23;1161;-74
2022/08/19 14:48:29;;;;;;;;;;;23.40;72.70;;;;;;6093873;23;757;-74
2022/08/19 14:50:54;;;;;;;;;;;23.40;72.60;;;;;;6095074;23;910;-74
2022/08/19 14:53:20;;;;;;;;;;;23.40;72.70;;;;;;6094988;23;919;-75
2022/08/19 14:55:45;;;;;;;;;;;23.40;72.70;;;;;;6068453;23;1318;-74
2022/08/19 14:58:11;;;;;;;;;;;23.40;72.70;;;;;;6069881;23;1412;-75